Terminal Aerodrome Forecast
Issued by NWS

Home | Current Version | Previous Version | Text Only | Print | Product List | Glossary On
Versions: 1 2 3 4 5 6 7 8 9 10 11 12 13 14 15 16 17 18
000
FTUS46 KPQR 251739
TAFONP
TAF
KONP 251739Z 2518/2618 16020G30KT 5SM -RA BR SCT010 BKN020 OVC040
     FM251900 19029G49KT 4SM RA BR SCT010 BKN018 OVC035
     FM252300 22022G44KT 4SM -SHRA BR BKN015 OVC035
     FM260200 25015G26KT 6SM -SHRA BKN025 BKN035
     FM260500 25012KT P6SM -SHRA SCT025 BKN035=

USA.gov is the U.S. government's official web portal to all federal, state and local government web resources and services.